Time;durP1;ratioP1;P1;durP2;ratioP2;P2;SDS_P1;SDS_P2;PMS_P1;PMS_P2;Temp;Humidity;BMP_temperature;BMP_pressure;BME280_temperature;BME280_humidity;BME280_pressure;Samples;Min_cycle;Max_cycle;Signal;HPM_P1;HPM_P2
2023/02/18 00:02:17;;;;;;;48.95;7.95;;;12.60;91.90;;;;;;5043874;28;20029;-57
2023/02/18 00:04:43;;;;;;;48.40;7.72;;;12.60;92.00;;;;;;5044013;28;20026;-57
2023/02/18 00:07:08;;;;;;;42.65;8.13;;;12.50;92.00;;;;;;5045423;28;20025;-57
2023/02/18 00:09:34;;;;;;;39.17;7.43;;;12.50;91.90;;;;;;5045197;28;20030;-57
2023/02/18 00:11:59;;;;;;;37.22;7.88;;;12.50;92.00;;;;;;5044740;28;20331;-57
2023/02/18 00:14:25;;;;;;;40.17;7.38;;;12.50;92.10;;;;;;5043697;28;20021;-57
2023/02/18 00:16:50;;;;;;;47.15;8.23;;;12.50;92.00;;;;;;5045095;28;20075;-57
2023/02/18 00:19:17;;;;;;;38.40;7.63;;;12.50;92.10;;;;;;5043458;28;20029;-57
2023/02/18 00:21:43;;;;;;;42.72;7.45;;;12.50;92.10;;;;;;5043342;28;20085;-57
2023/02/18 00:24:09;;;;;;;27.67;6.95;;;12.40;92.00;;;;;;5043275;28;20056;-57
2023/02/18 00:26:35;;;;;;;39.58;6.93;;;12.40;92.10;;;;;;5043356;28;20090;-57
2023/02/18 00:29:01;;;;;;;46.70;8.00;;;12.40;92.10;;;;;;5043489;28;20029;-57
2023/02/18 00:31:28;;;;;;;36.25;7.07;;;12.40;92.10;;;;;;5029356;28;20026;-57
2023/02/18 00:33:54;;;;;;;43.92;7.22;;;12.40;92.10;;;;;;5047770;28;20136;-57
2023/02/18 00:36:20;;;;;;;41.65;7.18;;;12.40;92.10;;;;;;5048066;28;20030;-57
2023/02/18 00:38:54;;;;;;;34.65;7.50;;;12.30;92.10;;;;;;5047157;28;20547;-56
2023/02/18 00:41:20;;;;;;;42.40;8.13;;;12.30;92.10;;;;;;5047610;28;20167;-57
2023/02/18 00:43:45;;;;;;;29.15;6.45;;;12.30;92.20;;;;;;5047347;28;20029;-57
2023/02/18 00:46:11;;;;;;;35.03;6.88;;;12.30;92.20;;;;;;5047119;28;20060;-57
2023/02/18 00:48:37;;;;;;;45.05;7.50;;;12.30;92.20;;;;;;5046908;28;20041;-57
2023/02/18 00:51:03;;;;;;;29.63;7.00;;;12.30;92.20;;;;;;5047014;28;20021;-57
2023/02/18 00:53:29;;;;;;;30.35;6.72;;;12.30;92.20;;;;;;5046935;28;20039;-57
2023/02/18 00:55:54;;;;;;;31.42;6.50;;;12.30;92.30;;;;;;5047117;28;20100;-57
2023/02/18 00:58:20;;;;;;;36.17;6.40;;;12.30;92.30;;;;;;5046956;28;20037;-57
2023/02/18 01:00:45;;;;;;;34.75;6.55;;;12.30;92.30;;;;;;5048444;28;20115;-56
2023/02/18 01:03:11;;;;;;;32.92;6.78;;;12.30;92.30;;;;;;5046872;28;20097;-57
2023/02/18 01:05:37;;;;;;;23.83;6.32;;;12.20;92.30;;;;;;5047148;28;20088;-56
2023/02/18 01:08:03;;;;;;;31.38;6.75;;;12.20;92.30;;;;;;5046915;28;20470;-56
2023/02/18 01:10:28;;;;;;;35.10;6.68;;;12.30;92.30;;;;;;5046909;28;20038;-57
2023/02/18 01:12:54;;;;;;;25.35;5.53;;;12.20;92.30;;;;;;5063188;28;20034;-57
2023/02/18 01:15:20;;;;;;;28.33;5.60;;;12.20;92.30;;;;;;5046979;28;20021;-57
2023/02/18 01:17:45;;;;;;;27.10;6.63;;;12.20;92.40;;;;;;5046548;28;20079;-57
2023/02/18 01:20:11;;;;;;;23.25;5.72;;;12.20;92.40;;;;;;5030164;28;20030;-57
2023/02/18 01:22:37;;;;;;;25.02;6.45;;;12.20;92.50;;;;;;5046382;28;20037;-57
2023/02/18 01:25:03;;;;;;;32.35;5.95;;;12.20;92.50;;;;;;5046494;28;20029;-57
2023/02/18 01:27:28;;;;;;;23.00;7.05;;;12.20;92.60;;;;;;5046477;28;20480;-57
2023/02/18 01:29:54;;;;;;;23.10;5.35;;;12.20;92.60;;;;;;5046377;28;20083;-57
2023/02/18 01:32:19;;;;;;;21.80;5.70;;;12.20;92.50;;;;;;5062921;28;20061;-57
2023/02/18 01:34:45;;;;;;;32.85;6.03;;;12.20;92.50;;;;;;5046333;28;20022;-57
2023/02/18 01:37:11;;;;;;;29.75;6.20;;;12.20;92.50;;;;;;5046094;28;20017;-57
2023/02/18 01:39:36;;;;;;;33.70;6.85;;;12.20;92.50;;;;;;5046305;28;20075;-57
2023/02/18 01:42:02;;;;;;;22.20;5.75;;;12.20;92.50;;;;;;5047514;28;20450;-57
2023/02/18 01:44:28;;;;;;;34.17;5.28;;;12.20;92.60;;;;;;5046147;28;20033;-57
2023/02/18 01:46:54;;;;;;;29.00;5.78;;;12.20;92.60;;;;;;5047413;28;20033;-57
2023/02/18 01:49:33;;;;;;;18.83;5.05;;;12.20;92.60;;;;;;5045997;28;20106;-57
2023/02/18 01:52:01;;;;;;;24.95;6.55;;;12.20;92.90;;;;;;5046066;28;20089;-57
2023/02/18 01:54:28;;;;;;;28.67;6.07;;;12.20;92.60;;;;;;5046116;28;20061;-57
2023/02/18 01:57:08;;;;;;;20.42;5.60;;;12.20;92.90;;;;;;5046027;28;20045;-57
2023/02/18 01:59:40;;;;;;;21.33;5.45;;;12.10;92.60;;;;;;5046398;28;20052;-57
2023/02/18 02:02:07;;;;;;;22.35;5.63;;;12.20;92.70;;;;;;5045823;28;20036;-57
2023/02/18 02:04:33;;;;;;;21.00;5.82;;;12.20;93.00;;;;;;5045596;28;20025;-57
2023/02/18 02:06:58;;;;;;;23.30;5.78;;;12.10;93.00;;;;;;5046221;28;20056;-57
2023/02/18 02:09:25;;;;;;;18.85;4.90;;;12.10;92.70;;;;;;5045706;28;20044;-57
2023/02/18 02:12:09;;;;;;;18.95;4.72;;;12.10;92.70;;;;;;5045496;28;20029;-57
2023/02/18 02:14:42;;;;;;;20.23;6.05;;;12.10;92.80;;;;;;5046723;28;20029;-57
2023/02/18 02:17:27;;;;;;;29.20;5.88;;;12.10;92.80;;;;;;5047001;28;20041;-57
2023/02/18 02:20:07;;;;;;;23.83;5.13;;;12.10;92.80;;;;;;5046906;28;20041;-57
2023/02/18 02:22:40;;;;;;;22.02;5.43;;;12.10;92.80;;;;;;5046723;28;20030;-57
2023/02/18 02:25:43;;;;;;;18.58;5.63;;;12.10;92.80;;;;;;5045668;28;20029;-57
2023/02/18 02:28:14;;;;;;;22.13;4.95;;;12.10;92.90;;;;;;5044881;28;20041;-57
2023/02/18 02:31:02;;;;;;;17.73;5.30;;;12.10;92.90;;;;;;5046651;28;20069;-57
2023/02/18 02:33:46;;;;;;;15.90;4.57;;;12.10;92.90;;;;;;5045393;28;20021;-57
2023/02/18 02:36:46;;;;;;;17.52;4.55;;;12.20;92.80;;;;;;5046732;28;20041;-57
2023/02/18 02:39:25;;;;;;;18.92;5.05;;;12.20;92.80;;;;;;5046480;28;20095;-57
2023/02/18 02:41:58;;;;;;;20.67;4.95;;;12.20;92.80;;;;;;5045505;28;20048;-57
2023/02/18 02:44:29;;;;;;;20.23;4.50;;;12.20;92.80;;;;;;5045392;28;20458;-57
2023/02/18 02:47:00;;;;;;;18.92;4.70;;;12.10;92.80;;;;;;5044849;28;20543;-57
2023/02/18 02:49:34;;;;;;;21.75;5.50;;;12.10;92.80;;;;;;5046458;28;20052;-57
2023/02/18 02:52:18;;;;;;;19.77;4.80;;;12.20;92.90;;;;;;5046326;28;20026;-57
2023/02/18 02:54:43;;;;;;;18.40;5.00;;;12.20;92.90;;;;;;5045759;28;20037;-57
2023/02/18 02:57:15;;;;;;;23.70;5.03;;;12.10;92.90;;;;;;5044823;28;20024;-57
2023/02/18 02:59:42;;;;;;;16.38;4.80;;;12.10;92.90;;;;;;5046374;28;20056;-57
2023/02/18 03:02:20;;;;;;;16.70;5.32;;;12.10;92.90;;;;;;5044706;28;20212;-57
2023/02/18 03:05:23;;;;;;;20.25;5.38;;;12.10;92.90;;;;;;5061504;28;20117;-56
2023/02/18 03:08:08;;;;;;;22.60;5.32;;;12.10;92.90;;;;;;5046061;28;20025;-57
2023/02/18 03:11:09;;;;;;;16.27;5.72;;;12.10;92.90;;;;;;5044525;28;20046;-57
2023/02/18 03:13:59;;;;;;;20.55;4.43;;;12.10;93.00;;;;;;5044423;28;20026;-57
2023/02/18 03:16:49;;;;;;;20.55;4.57;;;12.10;93.00;;;;;;5044760;28;20029;-57
2023/02/18 03:19:23;;;;;;;19.90;4.47;;;12.10;93.00;;;;;;5044525;28;20021;-57
2023/02/18 03:21:59;;;;;;;16.23;4.38;;;12.10;93.00;;;;;;5045777;28;20163;-57
2023/02/18 03:24:29;;;;;;;19.50;4.88;;;12.10;93.10;;;;;;5044623;28;20038;-57
2023/02/18 03:26:57;;;;;;;19.10;5.05;;;12.10;93.10;;;;;;5044379;28;20036;-57
2023/02/18 03:29:23;;;;;;;20.55;4.70;;;12.10;93.00;;;;;;5044277;28;20034;-57
2023/02/18 03:31:52;;;;;;;14.90;4.50;;;12.00;93.10;;;;;;5044380;28;20099;-57
2023/02/18 03:34:21;;;;;;;19.65;4.88;;;12.10;93.20;;;;;;5043931;28;20105;-56
2023/02/18 03:36:47;;;;;;;18.88;4.97;;;12.10;93.10;;;;;;5044318;28;20025;-57
2023/02/18 03:39:18;;;;;;;15.07;4.72;;;12.10;93.20;;;;;;5044066;28;20350;-57
2023/02/18 03:41:43;;;;;;;14.88;3.90;;;12.10;93.10;;;;;;5044221;28;20188;-57
2023/02/18 03:44:09;;;;;;;15.95;4.70;;;12.10;93.10;;;;;;5044222;28;20121;-57
2023/02/18 03:46:36;;;;;;;16.83;4.30;;;12.00;93.10;;;;;;5043743;28;20067;-57
2023/02/18 03:49:01;;;;;;;13.02;4.53;;;12.00;93.10;;;;;;5043528;28;20038;-57
2023/02/18 03:51:27;;;;;;;13.45;4.40;;;12.00;93.10;;;;;;5044036;28;20070;-57
2023/02/18 03:53:53;;;;;;;18.90;4.20;;;12.00;93.10;;;;;;5045234;28;20034;-57
2023/02/18 03:56:18;;;;;;;18.02;4.68;;;12.10;93.20;;;;;;5045171;28;20445;-56
2023/02/18 03:58:44;;;;;;;11.73;4.25;;;12.00;93.10;;;;;;5043771;28;20052;-57
2023/02/18 04:01:09;;;;;;;14.45;4.47;;;12.00;93.20;;;;;;5043616;28;20057;-57
2023/02/18 04:03:35;;;;;;;12.85;4.13;;;12.00;93.20;;;;;;5045237;28;20088;-57
2023/02/18 04:06:01;;;;;;;13.52;4.00;;;12.00;93.20;;;;;;5044364;28;20397;-57
2023/02/18 04:08:26;;;;;;;11.05;3.45;;;12.00;93.20;;;;;;5043818;28;20119;-57
2023/02/18 04:10:52;;;;;;;18.17;4.18;;;12.00;93.20;;;;;;5044030;28;20036;-57
2023/02/18 04:13:17;;;;;;;17.52;4.43;;;12.00;93.30;;;;;;5045171;28;20026;-57
2023/02/18 04:15:44;;;;;;;15.60;4.20;;;12.00;93.30;;;;;;5045277;28;20029;-57
2023/02/18 04:18:09;;;;;;;11.40;3.45;;;12.00;93.20;;;;;;5027071;28;20055;-57
2023/02/18 04:20:36;;;;;;;9.52;3.25;;;12.00;93.20;;;;;;5044771;28;20064;-57
2023/02/18 04:23:01;;;;;;;11.48;4.03;;;12.00;93.20;;;;;;5044950;28;20033;-57
2023/02/18 04:25:27;;;;;;;13.32;4.03;;;12.00;93.20;;;;;;5044784;28;20048;-57
2023/02/18 04:27:52;;;;;;;13.60;3.47;;;12.00;93.20;;;;;;5059933;28;20021;-57
2023/02/18 04:30:18;;;;;;;11.73;3.65;;;12.00;93.20;;;;;;5060054;28;20034;-56
2023/02/18 04:32:44;;;;;;;10.50;3.63;;;12.00;93.60;;;;;;5059810;28;20028;-57
2023/02/18 04:35:09;;;;;;;10.68;3.85;;;12.00;93.30;;;;;;5043635;28;20089;-57
2023/02/18 04:37:35;;;;;;;9.70;3.20;;;12.00;93.30;;;;;;5044655;28;20104;-57
2023/02/18 04:40:00;;;;;;;14.30;4.20;;;12.00;93.30;;;;;;5044614;28;20041;-57
2023/02/18 04:42:26;;;;;;;6.75;3.55;;;12.00;93.30;;;;;;5044876;28;20135;-57
2023/02/18 04:44:51;;;;;;;13.57;4.13;;;12.00;93.30;;;;;;5044500;28;20334;-57
2023/02/18 04:47:17;;;;;;;11.10;3.40;;;11.90;93.30;;;;;;5044353;28;20018;-57
2023/02/18 04:49:42;;;;;;;8.07;3.65;;;11.90;93.30;;;;;;5044712;28;20049;-57
2023/02/18 04:52:08;;;;;;;11.38;4.03;;;11.90;93.30;;;;;;5043160;28;20044;-57
2023/02/18 04:54:33;;;;;;;11.60;3.70;;;11.90;93.30;;;;;;5044525;28;20034;-57
2023/02/18 04:56:59;;;;;;;11.82;3.70;;;11.90;93.30;;;;;;5044567;28;20049;-57
2023/02/18 04:59:24;;;;;;;9.02;3.38;;;11.90;93.30;;;;;;5044450;28;20064;-57
2023/02/18 05:01:50;;;;;;;9.73;3.70;;;11.90;93.30;;;;;;5044660;28;20029;-57
2023/02/18 05:04:18;;;;;;;8.10;3.40;;;11.90;93.30;;;;;;5059711;28;20037;-57
2023/02/18 05:06:44;;;;;;;10.43;3.85;;;11.90;93.30;;;;;;5043467;28;20430;-57
2023/02/18 05:09:10;;;;;;;17.55;3.40;;;11.90;93.30;;;;;;5043507;28;20036;-57
2023/02/18 05:11:35;;;;;;;11.50;3.40;;;11.90;93.30;;;;;;5043014;28;20036;-57
2023/02/18 05:14:01;;;;;;;10.32;3.17;;;11.90;93.30;;;;;;5043128;28;20022;-57
2023/02/18 05:16:26;;;;;;;8.35;3.42;;;11.90;93.30;;;;;;5044009;28;20021;-57
2023/02/18 05:18:52;;;;;;;9.90;3.38;;;11.90;93.30;;;;;;5048058;28;20038;-57
2023/02/18 05:21:17;;;;;;;9.90;3.35;;;11.90;93.40;;;;;;5047127;28;20029;-57
2023/02/18 05:23:43;;;;;;;9.18;3.28;;;11.90;93.30;;;;;;5046686;28;20040;-57
2023/02/18 05:26:09;;;;;;;12.43;3.60;;;11.90;93.30;;;;;;5046480;28;20045;-57
2023/02/18 05:28:34;;;;;;;11.02;3.50;;;11.90;93.70;;;;;;5029973;28;20033;-57
2023/02/18 05:31:00;;;;;;;12.80;3.50;;;11.90;93.30;;;;;;5046438;28;20030;-57
2023/02/18 05:33:25;;;;;;;6.88;2.88;;;11.90;93.60;;;;;;5046472;28;20397;-57
2023/02/18 05:35:51;;;;;;;11.20;3.50;;;11.90;93.30;;;;;;5046455;28;20045;-57
2023/02/18 05:38:16;;;;;;;11.63;3.45;;;11.90;93.20;;;;;;5047692;28;20022;-57
2023/02/18 05:40:42;;;;;;;10.60;3.47;;;11.90;93.20;;;;;;5029996;28;20159;-57
2023/02/18 05:43:07;;;;;;;9.52;3.20;;;11.90;93.30;;;;;;5063865;28;20029;-57
2023/02/18 05:45:33;;;;;;;11.55;3.88;;;11.90;93.30;;;;;;5046367;28;20513;-57
2023/02/18 05:47:58;;;;;;;60.65;6.63;;;11.90;93.30;;;;;;5046050;28;20366;-57
2023/02/18 05:50:24;;;;;;;40.10;5.72;;;11.90;93.30;;;;;;5046267;28;20025;-57
2023/02/18 05:52:50;;;;;;;27.30;4.80;;;11.90;93.30;;;;;;5047543;28;20030;-57
2023/02/18 05:55:15;;;;;;;22.13;5.10;;;11.90;93.30;;;;;;5062694;28;20038;-56
2023/02/18 05:57:41;;;;;;;17.73;4.35;;;11.90;93.30;;;;;;5045983;28;20081;-57
2023/02/18 06:00:09;;;;;;;20.00;5.13;;;11.90;93.30;;;;;;5047512;28;20544;-57
2023/02/18 06:02:34;;;;;;;23.48;7.18;;;11.90;93.30;;;;;;5045922;28;20095;-56
2023/02/18 06:05:00;;;;;;;21.70;7.85;;;11.90;93.30;;;;;;5045996;28;20026;-57
2023/02/18 06:07:26;;;;;;;16.40;6.60;;;11.90;93.30;;;;;;5047287;28;20075;-57
2023/02/18 06:09:52;;;;;;;20.45;7.03;;;11.90;93.40;;;;;;5045776;28;20097;-57
2023/02/18 06:12:18;;;;;;;20.33;6.32;;;11.90;93.40;;;;;;5046005;28;20041;-57
2023/02/18 06:14:43;;;;;;;33.97;6.40;;;11.90;93.30;;;;;;5047218;28;20032;-57
2023/02/18 06:17:12;;;;;;;46.65;6.57;;;11.90;93.30;;;;;;5046629;28;20086;-57
2023/02/18 06:19:38;;;;;;;13.57;4.95;;;11.90;93.30;;;;;;5045537;28;20025;-57
2023/02/18 06:22:04;;;;;;;23.60;6.05;;;11.90;93.30;;;;;;5045630;28;20037;-57
2023/02/18 06:24:29;;;;;;;22.27;5.55;;;11.90;93.40;;;;;;5045554;28;20089;-57
2023/02/18 06:26:55;;;;;;;24.88;4.95;;;11.90;93.40;;;;;;5045711;28;20531;-57
2023/02/18 06:29:21;;;;;;;19.05;5.20;;;12.00;93.40;;;;;;5044518;28;20066;-57
2023/02/18 06:31:46;;;;;;;19.50;5.18;;;12.00;93.40;;;;;;5045493;28;20017;-57
2023/02/18 06:34:12;;;;;;;21.98;6.05;;;12.00;93.40;;;;;;5045515;28;20466;-57
2023/02/18 06:36:37;;;;;;;19.10;5.68;;;12.00;93.50;;;;;;5046756;28;20025;-57
2023/02/18 06:39:04;;;;;;;21.35;5.20;;;12.00;93.50;;;;;;5045336;28;20087;-57
2023/02/18 06:41:29;;;;;;;19.70;5.30;;;12.00;93.50;;;;;;5045098;28;20083;-57
2023/02/18 06:43:55;;;;;;;26.42;5.68;;;12.00;93.70;;;;;;5044881;28;20473;-57
2023/02/18 06:46:20;;;;;;;12.55;5.07;;;12.00;93.80;;;;;;5046725;28;20457;-57
2023/02/18 06:48:46;;;;;;;20.67;5.60;;;12.00;94.00;;;;;;5046244;28;20061;-57
2023/02/18 06:51:11;;;;;;;18.00;5.28;;;12.00;93.60;;;;;;5046475;28;20036;-57
2023/02/18 06:53:37;;;;;;;17.73;5.13;;;12.00;93.60;;;;;;5045297;28;20119;-57
2023/02/18 06:56:02;;;;;;;10.00;5.35;;;12.00;93.60;;;;;;5046492;28;20061;-57
2023/02/18 06:58:28;;;;;;;16.38;5.10;;;12.00;93.60;;;;;;5046712;28;20033;-56
2023/02/18 07:00:54;;;;;;;13.25;4.28;;;12.00;93.60;;;;;;5046462;28;20470;-57
2023/02/18 07:03:19;;;;;;;19.13;5.20;;;12.00;93.70;;;;;;5046137;28;20030;-57
2023/02/18 07:05:45;;;;;;;19.77;5.25;;;12.00;93.80;;;;;;5044609;28;20491;-57
2023/02/18 07:08:10;;;;;;;22.75;5.50;;;12.00;93.80;;;;;;5044647;28;20033;-57
2023/02/18 07:10:36;;;;;;;15.63;4.57;;;12.00;93.80;;;;;;5044445;28;20033;-57
2023/02/18 07:13:01;;;;;;;17.27;4.80;;;12.00;93.80;;;;;;5044670;28;20060;-57
2023/02/18 07:15:27;;;;;;;22.17;5.50;;;12.00;93.70;;;;;;5044492;28;20358;-57
2023/02/18 07:17:53;;;;;;;19.38;5.78;;;12.00;93.70;;;;;;5044732;28;20112;-57
2023/02/18 07:20:19;;;;;;;15.63;5.03;;;12.00;93.70;;;;;;5044933;28;20041;-57
2023/02/18 07:22:44;;;;;;;10.95;4.57;;;12.00;93.70;;;;;;5044254;28;20052;-57
2023/02/18 07:25:10;;;;;;;16.08;4.30;;;12.00;93.70;;;;;;5045709;28;20463;-57
2023/02/18 07:27:36;;;;;;;15.65;4.72;;;12.00;94.00;;;;;;5045497;28;20037;-57
2023/02/18 07:30:01;;;;;;;15.60;4.45;;;12.00;93.70;;;;;;5045556;28;20026;-57
2023/02/18 07:32:27;;;;;;;9.63;3.72;;;12.10;93.70;;;;;;5044367;28;20108;-57
2023/02/18 07:34:52;;;;;;;12.10;4.03;;;12.00;93.70;;;;;;5044180;28;20056;-57
2023/02/18 07:37:19;;;;;;;16.52;4.07;;;12.00;93.70;;;;;;5045419;28;20033;-57
2023/02/18 07:39:44;;;;;;;13.18;4.55;;;12.10;93.70;;;;;;5044254;28;20030;-57
2023/02/18 07:42:10;;;;;;;11.90;4.30;;;12.00;93.70;;;;;;5045347;28;20030;-57
2023/02/18 07:44:36;;;;;;;12.55;4.72;;;12.10;93.70;;;;;;5044461;28;20052;-56
2023/02/18 07:47:02;;;;;;;11.93;4.70;;;12.10;93.70;;;;;;5043926;28;20026;-57
2023/02/18 07:49:28;;;;;;;13.48;4.72;;;12.10;93.70;;;;;;5043867;28;20064;-57
2023/02/18 07:51:53;;;;;;;7.72;3.75;;;12.10;93.60;;;;;;5044196;28;20381;-57
2023/02/18 07:54:19;;;;;;;20.92;4.65;;;12.10;93.60;;;;;;5043881;28;20105;-57
2023/02/18 07:56:44;;;;;;;18.77;4.25;;;12.10;93.60;;;;;;5060414;28;20051;-57
2023/02/18 07:59:11;;;;;;;11.70;4.15;;;12.10;93.60;;;;;;5043928;28;20091;-57
2023/02/18 08:01:36;;;;;;;13.65;4.03;;;12.10;93.60;;;;;;5043860;28;20033;-57
2023/02/18 08:04:02;;;;;;;19.13;4.10;;;12.10;93.60;;;;;;5043762;28;20033;-57
2023/02/18 08:06:32;;;;;;;10.23;3.80;;;12.10;93.60;;;;;;5043677;28;20040;-57
2023/02/18 08:08:57;;;;;;;16.60;3.70;;;12.10;93.60;;;;;;5042087;28;20037;-57
2023/02/18 08:11:23;;;;;;;10.85;4.05;;;12.10;93.60;;;;;;5044619;28;20037;-57
2023/02/18 08:13:48;;;;;;;10.88;3.80;;;12.20;93.60;;;;;;5043304;28;20032;-57
2023/02/18 08:16:15;;;;;;;12.10;3.58;;;12.10;93.50;;;;;;5043866;28;20033;-56
2023/02/18 08:18:40;;;;;;;13.52;3.60;;;12.10;93.50;;;;;;5027402;28;20461;-57
2023/02/18 08:21:06;;;;;;;7.10;3.42;;;12.10;93.50;;;;;;5043415;28;20034;-57
2023/02/18 08:23:31;;;;;;;16.58;4.38;;;12.20;93.50;;;;;;5043424;28;20034;-57
2023/02/18 08:25:57;;;;;;;6.95;3.13;;;12.20;93.50;;;;;;5044681;28;20060;-57
2023/02/18 08:28:23;;;;;;;10.85;3.60;;;12.20;93.40;;;;;;5044702;28;20025;-57
2023/02/18 08:30:49;;;;;;;13.95;3.80;;;12.20;93.40;;;;;;5027060;28;20482;-57
2023/02/18 08:33:15;;;;;;;10.02;2.95;;;12.20;93.40;;;;;;5044691;28;20030;-57
2023/02/18 08:35:41;;;;;;;9.40;3.30;;;12.20;93.40;;;;;;5044793;28;20040;-57
2023/02/18 08:38:06;;;;;;;9.90;3.38;;;12.20;93.40;;;;;;5043300;28;20025;-57
2023/02/18 08:40:32;;;;;;;10.40;3.70;;;12.30;93.30;;;;;;5044667;28;20381;-57
2023/02/18 08:42:57;;;;;;;6.93;3.20;;;12.30;93.30;;;;;;5043380;28;20091;-57
2023/02/18 08:45:23;;;;;;;10.55;3.40;;;12.30;93.30;;;;;;5010356;28;20036;-57
2023/02/18 08:47:48;;;;;;;13.73;3.45;;;12.30;93.30;;;;;;5043116;28;20044;-57
2023/02/18 08:50:14;;;;;;;12.05;3.63;;;12.30;93.30;;;;;;5044521;28;20105;-57
2023/02/18 08:52:39;;;;;;;10.00;4.07;;;12.30;93.20;;;;;;5046158;28;20052;-57
2023/02/18 08:55:05;;;;;;;6.57;3.08;;;12.40;93.20;;;;;;5047261;28;20049;-57
2023/02/18 08:57:31;;;;;;;10.38;3.45;;;12.40;93.20;;;;;;5046935;28;20030;-57
2023/02/18 08:59:56;;;;;;;10.43;3.63;;;12.40;93.10;;;;;;5047041;28;20026;-57
2023/02/18 09:02:22;;;;;;;12.50;3.40;;;12.40;93.20;;;;;;5046775;28;20029;-57
2023/02/18 09:04:48;;;;;;;10.57;3.40;;;12.40;93.10;;;;;;5046732;28;20030;-57
2023/02/18 09:07:13;;;;;;;6.18;3.15;;;12.40;93.00;;;;;;5046392;28;20112;-57
2023/02/18 09:09:39;;;;;;;5.85;3.20;;;12.50;93.10;;;;;;5047932;28;20033;-57
2023/02/18 09:12:04;;;;;;;7.47;3.00;;;12.50;93.00;;;;;;5047648;28;20030;-57
2023/02/18 09:14:30;;;;;;;14.30;3.97;;;12.50;93.00;;;;;;5046317;28;20033;-57
2023/02/18 09:16:57;;;;;;;9.70;3.03;;;12.50;93.00;;;;;;5046926;28;20032;-59
2023/02/18 09:19:22;;;;;;;7.57;2.60;;;12.50;93.00;;;;;;5030342;28;20021;-57
2023/02/18 09:21:48;;;;;;;5.38;2.70;;;12.60;92.90;;;;;;5029778;28;20079;-57
2023/02/18 09:24:13;;;;;;;19.48;3.80;;;12.60;92.80;;;;;;5046306;28;20033;-57
2023/02/18 09:26:39;;;;;;;32.08;4.72;;;12.60;92.80;;;;;;5046548;28;20040;-57
2023/02/18 09:29:05;;;;;;;30.70;5.53;;;12.70;92.90;;;;;;5046047;28;20044;-57
2023/02/18 09:31:30;;;;;;;76.40;8.82;;;12.70;93.00;;;;;;5046654;28;20038;-57
2023/02/18 09:33:58;;;;;;;42.30;5.80;;;12.80;93.10;;;;;;5046107;28;20375;-56
2023/02/18 09:36:23;;;;;;;32.45;5.55;;;12.80;93.10;;;;;;5045889;28;20048;-57
2023/02/18 09:38:49;;;;;;;43.97;5.60;;;12.90;93.20;;;;;;5044077;28;20021;-57
2023/02/18 09:41:42;;;;;;;45.00;6.10;;;12.90;93.20;;;;;;5012435;28;20049;-57
2023/02/18 09:44:29;;;;;;;50.42;7.03;;;12.90;93.20;;;;;;5029468;28;20055;-57
2023/02/18 09:47:04;;;;;;;41.10;5.90;;;13.00;93.20;;;;;;5016197;28;20052;-57
2023/02/18 09:49:33;;;;;;;62.03;8.10;;;13.00;93.10;;;;;;5009259;28;20034;-57
2023/02/18 09:52:04;;;;;;;20.52;4.65;;;13.00;93.10;;;;;;5013487;28;20036;-57
2023/02/18 09:54:30;;;;;;;25.13;4.40;;;13.10;93.10;;;;;;5045603;28;20406;-57
2023/02/18 09:56:55;;;;;;;63.40;8.02;;;13.10;92.70;;;;;;5033230;28;20075;-57
2023/02/18 09:59:22;;;;;;;99.03;9.80;;;13.10;92.80;;;;;;5008612;28;20081;-57
2023/02/18 10:01:50;;;;;;;81.72;10.40;;;13.10;93.00;;;;;;5041910;28;20026;-57
2023/02/18 10:04:26;;;;;;;75.47;9.32;;;13.20;93.30;;;;;;5027072;28;20128;-57
2023/02/18 10:06:52;;;;;;;68.82;9.27;;;13.20;93.10;;;;;;5023671;28;20036;-57
2023/02/18 10:09:27;;;;;;;108.28;9.23;;;13.40;93.10;;;;;;5025672;28;20041;-57
2023/02/18 10:12:14;;;;;;;98.72;11.10;;;13.40;93.00;;;;;;5025221;28;20033;-57
2023/02/18 10:14:49;;;;;;;88.13;10.77;;;13.40;93.00;;;;;;5027950;28;20210;-57
2023/02/18 10:17:15;;;;;;;55.75;8.93;;;13.50;92.90;;;;;;5027879;28;20018;-57
2023/02/18 10:19:40;;;;;;;99.00;11.10;;;13.50;92.80;;;;;;5044029;28;20101;-57
2023/02/18 10:22:07;;;;;;;125.25;12.60;;;13.50;93.00;;;;;;5044861;28;20084;-57
2023/02/18 10:24:35;;;;;;;157.48;13.80;;;13.60;93.20;;;;;;5024464;28;20163;-56
2023/02/18 10:27:03;;;;;;;141.95;14.07;;;13.60;93.30;;;;;;5026354;28;20029;-57
2023/02/18 10:29:31;;;;;;;170.57;16.48;;;13.70;93.30;;;;;;5025180;28;20029;-57
2023/02/18 10:31:56;;;;;;;151.00;15.90;;;13.70;93.30;;;;;;5008921;28;20459;-57
2023/02/18 10:34:42;;;;;;;157.50;16.25;;;13.70;93.30;;;;;;5030555;28;20026;-57
2023/02/18 10:37:43;;;;;;;161.35;16.80;;;13.80;93.20;;;;;;5024641;28;20382;-57
2023/02/18 10:40:16;;;;;;;120.63;15.82;;;13.90;93.20;;;;;;5024087;28;20113;-57
2023/02/18 10:42:57;;;;;;;284.15;26.80;;;13.90;93.20;;;;;;5028473;28;20093;-57
2023/02/18 10:45:45;;;;;;;208.40;19.38;;;13.90;93.20;;;;;;5028896;28;20022;-57
2023/02/18 10:48:37;;;;;;;186.82;19.85;;;14.00;93.10;;;;;;5042825;28;20033;-57
2023/02/18 10:51:27;;;;;;;227.75;20.00;;;14.00;93.10;;;;;;5036581;28;20045;-58
2023/02/18 10:53:53;;;;;;;224.40;19.30;;;14.00;93.10;;;;;;5049754;28;20033;-57
2023/02/18 10:56:44;;;;;;;221.57;20.98;;;14.10;93.10;;;;;;5053950;28;20067;-58
2023/02/18 10:59:11;;;;;;;225.02;19.92;;;14.10;93.00;;;;;;5031952;28;20045;-57
2023/02/18 11:01:37;;;;;;;171.57;20.63;;;14.20;93.10;;;;;;5027479;28;20026;-57
2023/02/18 11:04:11;;;;;;;330.10;29.40;;;14.20;93.00;;;;;;5033916;28;20418;-57
2023/02/18 11:06:47;;;;;;;257.63;23.17;;;14.30;92.70;;;;;;5024772;28;20088;-57
2023/02/18 11:09:41;;;;;;;228.88;21.92;;;14.30;92.70;;;;;;5026059;28;20059;-57
2023/02/18 11:12:23;;;;;;;204.73;18.60;;;14.30;92.60;;;;;;5033403;28;20037;-57
2023/02/18 11:15:09;;;;;;;209.88;19.70;;;14.30;92.70;;;;;;5042961;28;20033;-57
2023/02/18 11:17:36;;;;;;;175.95;18.25;;;14.30;92.50;;;;;;5023459;28;20076;-57
2023/02/18 11:20:17;;;;;;;132.55;14.32;;;14.40;92.70;;;;;;5024167;28;20030;-57
2023/02/18 11:22:43;;;;;;;126.10;14.10;;;14.40;92.50;;;;;;5023873;28;20030;-57
2023/02/18 11:25:23;;;;;;;151.13;15.73;;;14.40;92.10;;;;;;5028551;28;20069;-57
2023/02/18 11:27:56;;;;;;;166.38;16.60;;;14.50;92.10;;;;;;5038845;28;20108;-57
2023/02/18 11:30:32;;;;;;;185.35;19.13;;;14.50;92.30;;;;;;5022540;28;20030;-57
2023/02/18 11:33:00;;;;;;;250.20;23.63;;;14.50;92.30;;;;;;5042551;28;20025;-57
2023/02/18 11:35:27;;;;;;;159.88;17.20;;;14.50;92.50;;;;;;5038976;28;20025;-57
2023/02/18 11:37:53;;;;;;;203.80;21.55;;;14.60;92.60;;;;;;5037491;28;20503;-57
2023/02/18 11:40:34;;;;;;;202.20;20.30;;;14.60;92.50;;;;;;5041261;28;20154;-57
2023/02/18 11:43:18;;;;;;;182.10;18.55;;;14.60;92.50;;;;;;5023554;28;20109;-57
2023/02/18 11:45:43;;;;;;;150.82;17.48;;;14.60;92.60;;;;;;5023705;28;20056;-57
2023/02/18 11:48:17;;;;;;;172.77;16.63;;;14.60;92.60;;;;;;5023569;28;20037;-57
2023/02/18 11:50:42;;;;;;;144.88;15.45;;;14.70;92.40;;;;;;5022377;28;20064;-57
2023/02/18 11:53:32;;;;;;;159.20;17.15;;;14.70;92.20;;;;;;5022441;28;20041;-57
2023/02/18 11:56:05;;;;;;;153.82;16.73;;;14.70;92.00;;;;;;5023192;28;20045;-57
2023/02/18 11:58:40;;;;;;;173.70;18.75;;;14.70;92.00;;;;;;5008511;28;20049;-57
2023/02/18 12:01:09;;;;;;;140.00;16.25;;;14.70;92.20;;;;;;5023493;28;20033;-57
2023/02/18 12:03:43;;;;;;;136.75;15.98;;;14.70;92.30;;;;;;5023360;28;20216;-57
2023/02/18 12:06:17;;;;;;;120.93;14.95;;;14.80;92.20;;;;;;5029293;28;20033;-57
2023/02/18 12:08:48;;;;;;;182.85;18.58;;;14.80;92.00;;;;;;5027249;28;20044;-57
2023/02/18 12:11:25;;;;;;;155.60;16.73;;;14.80;91.90;;;;;;5043915;28;20033;-57
2023/02/18 12:13:53;;;;;;;227.43;18.65;;;14.90;92.00;;;;;;5026674;28;20043;-57
2023/02/18 12:16:40;;;;;;;184.60;19.75;;;14.90;91.80;;;;;;5037370;28;20058;-57
2023/02/18 12:19:24;;;;;;;176.18;17.70;;;14.90;91.90;;;;;;5025806;28;20034;-57
2023/02/18 12:21:56;;;;;;;183.15;20.98;;;14.90;92.00;;;;;;5024747;28;20531;-57
2023/02/18 12:24:43;;;;;;;235.60;22.27;;;15.00;92.10;;;;;;5054078;28;20044;-57
2023/02/18 12:27:28;;;;;;;182.57;20.05;;;15.00;92.00;;;;;;5041903;28;20457;-57
2023/02/18 12:29:59;;;;;;;178.98;19.08;;;15.10;91.70;;;;;;5042161;28;20041;-57
2023/02/18 12:32:33;;;;;;;194.57;19.50;;;15.10;91.60;;;;;;5024177;28;20045;-57
2023/02/18 12:35:20;;;;;;;207.38;20.77;;;15.10;91.50;;;;;;5024394;28;20022;-57
2023/02/18 12:38:04;;;;;;;219.88;22.27;;;15.10;91.40;;;;;;5023149;28;20366;-57
2023/02/18 12:40:58;;;;;;;207.82;21.88;;;15.20;91.70;;;;;;5040983;28;20021;-57
2023/02/18 12:43:52;;;;;;;272.67;26.83;;;15.20;91.50;;;;;;5024582;28;20082;-57
2023/02/18 12:46:26;;;;;;;221.73;25.48;;;15.20;91.50;;;;;;5032309;28;20021;-57